createdAt,value
2023-01-13T00:02:43.456Z,33.30
2023-01-13T00:05:44.460Z,27.20
2023-01-13T00:08:45.530Z,28.50
2023-01-13T00:11:47.985Z,29.00
2023-01-13T00:14:52.442Z,26.70
2023-01-13T00:17:56.433Z,29.30
2023-01-13T00:20:57.599Z,34.30
2023-01-13T00:24:00.550Z,34.20
2023-01-13T00:27:03.486Z,26.70
2023-01-13T00:30:09.456Z,25.70
2023-01-13T00:33:13.237Z,29.50
2023-01-13T00:36:14.476Z,27.20
2023-01-13T00:39:14.694Z,40.10
2023-01-13T00:42:38.497Z,23.80
2023-01-13T00:45:38.503Z,30.50
2023-01-13T00:51:42.632Z,25.90
2023-01-13T00:54:43.555Z,20.30
2023-01-13T00:57:52.921Z,29.70
2023-01-13T01:00:55.451Z,20.90
2023-01-13T01:07:07.534Z,31.40
2023-01-13T01:10:22.154Z,29.80
2023-01-13T01:13:25.862Z,25.40
2023-01-13T01:16:33.737Z,30.00
2023-01-13T01:19:40.765Z,27.40
2023-01-13T01:22:41.605Z,22.30
2023-01-13T01:26:00.982Z,21.60
2023-01-13T01:29:03.650Z,23.10
2023-01-13T01:32:06.661Z,26.30
2023-01-13T01:35:07.802Z,29.00
2023-01-13T01:41:10.617Z,20.40
2023-01-13T01:44:54.630Z,25.40
2023-01-13T01:47:53.304Z,29.00
2023-01-13T01:50:53.653Z,38.70
2023-01-13T01:53:54.582Z,27.80
2023-01-13T01:56:56.610Z,24.80
2023-01-13T01:59:56.832Z,28.10
2023-01-13T02:03:05.712Z,26.00
2023-01-13T02:06:06.899Z,23.60
2023-01-13T02:09:11.685Z,27.70
2023-01-13T02:12:30.614Z,22.30
2023-01-13T02:15:34.664Z,24.20
2023-01-13T02:19:12.728Z,35.80
2023-01-13T02:23:03.675Z,31.10
2023-01-13T02:26:32.679Z,33.20
2023-01-13T02:30:27.649Z,38.60
2023-01-13T02:33:42.657Z,29.70
2023-01-13T02:36:52.660Z,38.70
2023-01-13T02:40:00.660Z,30.70
2023-01-13T02:43:21.685Z,30.70
2023-01-13T02:46:26.695Z,32.50
2023-01-13T02:49:49.671Z,30.80
2023-01-13T02:53:03.206Z,33.60
2023-01-13T02:56:04.844Z,36.80
2023-01-13T02:59:04.685Z,37.00
2023-01-13T03:02:05.888Z,39.00
2023-01-13T03:05:15.756Z,38.10
2023-01-13T03:08:23.738Z,34.10
2023-01-13T03:11:24.738Z,38.60
2023-01-13T03:14:39.761Z,42.30
2023-01-13T03:17:49.898Z,38.50
2023-01-13T03:20:54.820Z,38.70
2023-01-13T03:24:13.789Z,40.40
2023-01-13T03:27:24.953Z,37.70
2023-01-13T03:30:33.954Z,36.40
2023-01-13T03:33:40.747Z,32.80
2023-01-13T03:36:41.786Z,40.50
2023-01-13T03:39:47.739Z,46.90
2023-01-13T03:43:08.784Z,34.70
2023-01-13T03:46:17.830Z,35.30
2023-01-13T03:49:18.927Z,45.40
2023-01-13T03:52:19.786Z,40.20
2023-01-13T03:55:26.944Z,35.70
2023-01-13T03:58:28.810Z,33.30
2023-01-13T04:01:37.887Z,37.80
2023-01-13T04:04:41.805Z,38.90
2023-01-13T04:07:51.841Z,33.10
2023-01-13T04:11:11.211Z,28.80
2023-01-13T04:14:10.904Z,40.00
2023-01-13T04:17:11.895Z,36.00
2023-01-13T04:20:11.868Z,36.50
2023-01-13T04:23:11.872Z,36.70
2023-01-13T04:26:13.119Z,47.20
2023-01-13T04:29:15.969Z,46.80
2023-01-13T04:32:17.869Z,44.30
2023-01-13T04:35:19.904Z,60.80
2023-01-13T04:38:34.867Z,40.10
2023-01-13T04:41:35.033Z,49.30
2023-01-13T07:29:29.881Z,38.10
2023-01-13T07:32:30.868Z,36.50
2023-01-13T07:35:31.860Z,35.80
2023-01-13T07:38:33.844Z,40.20
2023-01-13T07:41:52.866Z,43.00
2023-01-13T07:44:53.847Z,37.50
2023-01-13T07:47:54.880Z,32.70
2023-01-13T07:50:55.987Z,39.20
2023-01-13T07:53:56.879Z,34.10
2023-01-13T07:56:58.111Z,35.70
2023-01-13T07:59:59.097Z,37.30
2023-01-13T08:03:00.884Z,37.70
2023-01-13T08:06:02.897Z,34.40
2023-01-13T08:09:08.331Z,33.00
2023-01-13T08:12:28.940Z,40.40
2023-01-13T08:15:30.847Z,36.50
2023-01-13T08:18:32.897Z,30.30
2023-01-13T08:21:33.962Z,44.10
2023-01-13T08:24:34.953Z,41.60
2023-01-13T08:27:37.008Z,33.70
2023-01-13T08:30:40.003Z,37.20
2023-01-13T08:33:43.024Z,26.10
2023-01-13T08:36:46.057Z,35.00
2023-01-13T08:39:46.959Z,34.40
2023-01-13T08:42:48.827Z,34.00
2023-01-13T08:45:50.111Z,29.20
2023-01-13T08:48:50.973Z,30.50
2023-01-13T08:51:52.012Z,37.90
2023-01-13T08:54:52.999Z,40.30
2023-01-13T08:58:00.578Z,27.00
2023-01-13T09:01:07.084Z,29.70
2023-01-13T09:04:08.063Z,40.80
2023-01-13T09:07:08.989Z,31.40
2023-01-13T09:10:10.056Z,26.90
2023-01-13T09:13:21.957Z,29.00
2023-01-13T09:16:23.033Z,30.20
2023-01-13T09:19:23.991Z,32.30
2023-01-13T09:22:29.071Z,28.30
2023-01-13T09:25:30.012Z,28.20
2023-01-13T09:28:31.034Z,29.10
2023-01-13T09:31:32.138Z,31.20
2023-01-13T09:34:53.010Z,25.40
2023-01-13T09:37:54.078Z,32.10
2023-01-13T09:40:55.075Z,28.20
2023-01-13T09:44:01.067Z,26.70
2023-01-13T09:47:03.073Z,36.00
2023-01-13T09:50:06.126Z,21.80
2023-01-13T09:53:07.071Z,27.30
2023-01-13T09:56:08.131Z,27.50
2023-01-13T09:59:09.077Z,29.90
2023-01-13T10:02:14.116Z,29.80
2023-01-13T10:05:27.552Z,29.30
2023-01-13T10:08:42.177Z,31.50
2023-01-13T10:12:08.256Z,30.80
2023-01-13T10:15:09.157Z,29.90
2023-01-13T10:18:18.172Z,27.40
2023-01-13T10:21:37.507Z,38.20
2023-01-13T10:24:38.185Z,34.00
2023-01-13T10:27:47.148Z,32.40
2023-01-13T10:30:51.165Z,30.50
2023-01-13T10:33:52.330Z,30.10
2023-01-13T10:36:53.120Z,33.40
2023-01-13T10:40:00.177Z,30.70
2023-01-13T10:43:02.259Z,32.80
2023-01-13T10:46:24.227Z,43.00
2023-01-13T10:49:43.192Z,30.10
2023-01-13T10:52:46.177Z,31.10
2023-01-13T10:55:51.295Z,36.50
2023-01-13T10:58:53.306Z,29.30
2023-01-13T11:02:23.898Z,29.20
2023-01-13T11:05:36.233Z,33.50
2023-01-13T11:08:55.279Z,26.70
2023-01-13T11:12:02.234Z,27.20
2023-01-13T11:15:03.210Z,28.50
2023-01-13T11:18:07.218Z,28.40
2023-01-13T11:21:08.278Z,32.10
2023-01-13T11:24:21.384Z,35.50
2023-01-13T11:27:26.234Z,28.50
2023-01-13T11:30:36.310Z,29.90
2023-01-13T11:34:03.284Z,28.30
2023-01-13T11:37:05.304Z,31.80
2023-01-13T11:40:15.274Z,30.20
2023-01-13T11:43:54.275Z,30.00
2023-01-13T11:46:55.386Z,35.50
2023-01-13T11:50:01.478Z,26.80
2023-01-13T11:53:30.363Z,28.90
2023-01-13T11:56:49.276Z,31.60
2023-01-13T12:00:08.306Z,29.50
2023-01-13T12:03:27.376Z,22.90
2023-01-13T12:06:52.339Z,24.80
2023-01-13T12:10:17.324Z,26.50
2023-01-13T12:13:39.337Z,32.00
2023-01-13T12:16:40.385Z,23.70
2023-01-13T12:19:43.329Z,26.70
2023-01-13T12:22:44.511Z,25.00
2023-01-13T12:25:56.364Z,26.20
2023-01-13T12:29:18.334Z,26.40
2023-01-13T12:32:21.377Z,24.40
2023-01-13T12:35:53.318Z,25.60
2023-01-13T12:39:11.364Z,23.60
2023-01-13T12:42:51.381Z,27.00
2023-01-13T12:45:52.453Z,24.30
2023-01-13T12:49:06.376Z,23.70
2023-01-13T12:52:13.360Z,25.00
2023-01-13T12:55:15.418Z,31.70
2023-01-13T12:58:19.483Z,27.20
2023-01-13T13:01:27.497Z,26.10
2023-01-13T16:23:57.152Z,35.00
2023-01-13T16:26:58.139Z,35.60
2023-01-13T16:29:59.135Z,41.20
2023-01-13T16:33:01.158Z,35.10
2023-01-13T16:36:10.725Z,35.30
2023-01-13T16:39:13.158Z,36.50
2023-01-13T16:42:13.197Z,36.00
2023-01-13T16:45:15.159Z,44.40
2023-01-13T16:48:15.191Z,38.80
2023-01-13T16:51:15.211Z,32.90
2023-01-13T16:54:15.280Z,35.50
2023-01-13T16:57:17.214Z,32.50
2023-01-13T17:00:17.237Z,33.90
2023-01-13T17:03:17.263Z,35.90
2023-01-13T17:06:19.228Z,37.20
2023-01-13T17:09:20.230Z,37.80
2023-01-13T17:12:14.257Z,40.30
2023-01-13T17:14:54.341Z,30.60
2023-01-13T17:17:40.497Z,31.80
2023-01-13T17:20:40.284Z,36.70
2023-01-13T17:23:40.292Z,40.00
2023-01-13T17:26:44.295Z,37.70
2023-01-13T17:29:44.325Z,40.00
2023-01-13T17:32:44.310Z,38.50
2023-01-13T17:35:44.312Z,44.40
2023-01-13T17:38:46.546Z,35.70
2023-01-13T17:41:46.292Z,38.20
2023-01-13T17:44:46.329Z,43.10
2023-01-13T17:47:47.558Z,41.40
2023-01-13T17:50:49.347Z,32.10
2023-01-13T17:53:54.297Z,35.70
2023-01-13T17:56:54.353Z,37.00
2023-01-13T17:59:54.388Z,44.30
2023-01-13T18:02:57.528Z,38.80
2023-01-13T18:05:58.313Z,35.30
2023-01-13T18:09:00.321Z,36.10
2023-01-13T18:12:02.337Z,46.30
2023-01-13T18:15:02.311Z,44.80
2023-01-13T18:18:03.696Z,40.30
2023-01-13T18:21:23.345Z,49.80
2023-01-13T18:24:41.093Z,50.50
2023-01-13T18:27:46.424Z,40.70
2023-01-13T18:30:46.414Z,38.80
2023-01-13T18:33:47.350Z,42.40
2023-01-13T18:36:47.416Z,40.50
2023-01-13T18:39:47.712Z,38.80
2023-01-13T18:42:59.536Z,42.10
2023-01-13T18:46:02.449Z,47.70
2023-01-13T18:49:02.497Z,46.40
2023-01-13T18:52:03.498Z,42.20
2023-01-13T18:54:56.780Z,44.30
2023-01-13T18:57:56.493Z,39.70
2023-01-13T19:00:56.434Z,46.30
2023-01-13T19:04:00.420Z,43.10
2023-01-13T19:07:06.424Z,35.80
2023-01-13T19:10:07.497Z,41.70
2023-01-13T19:13:07.433Z,49.90
2023-01-13T19:16:30.528Z,43.00
2023-01-13T19:19:31.573Z,40.40
2023-01-13T19:22:34.560Z,41.10
2023-01-13T19:25:37.505Z,37.00
2023-01-13T19:28:38.471Z,35.40
2023-01-13T19:31:40.437Z,36.90
2023-01-13T19:34:41.507Z,33.80
2023-01-13T19:37:42.486Z,33.10
2023-01-13T19:40:42.552Z,34.30
2023-01-13T19:44:00.459Z,40.30
2023-01-13T19:47:00.573Z,35.50
2023-01-13T19:50:00.563Z,35.40
2023-01-13T19:53:04.586Z,34.60
2023-01-13T19:56:07.533Z,38.20
2023-01-13T19:59:07.506Z,41.00
2023-01-13T20:02:10.702Z,37.10
2023-01-13T20:05:14.563Z,36.40
2023-01-13T20:08:14.588Z,39.20
2023-01-13T20:11:28.532Z,34.40
2023-01-13T20:14:21.615Z,32.90
2023-01-13T20:17:08.611Z,47.70
2023-01-13T20:20:08.546Z,34.20
2023-01-13T20:23:08.565Z,38.10
2023-01-13T20:26:08.623Z,41.20
2023-01-13T20:29:08.611Z,30.80
2023-01-13T20:32:08.617Z,36.40
2023-01-13T20:35:08.567Z,34.10
2023-01-13T20:38:09.644Z,35.00
2023-01-13T20:41:30.633Z,31.90
2023-01-13T20:44:30.570Z,33.80
2023-01-13T20:47:30.581Z,35.10
2023-01-13T20:50:34.107Z,30.20
2023-01-13T20:53:36.661Z,31.50
2023-01-13T20:56:39.636Z,26.00
2023-01-13T20:59:40.879Z,32.80
2023-01-13T21:02:40.618Z,30.10
2023-01-13T21:05:41.670Z,30.10
2023-01-13T21:08:45.726Z,31.90
2023-01-13T21:12:05.686Z,28.70
2023-01-13T21:15:28.639Z,32.80
2023-01-13T21:18:49.700Z,35.90
2023-01-13T21:21:50.705Z,28.20
2023-01-13T21:24:54.653Z,27.30
2023-01-13T21:27:54.773Z,34.10
2023-01-13T21:30:55.762Z,30.40
2023-01-13T21:33:49.780Z,28.80
2023-01-13T21:36:50.848Z,23.80
2023-01-13T21:39:53.676Z,25.50
2023-01-13T21:43:12.711Z,27.80
2023-01-13T21:46:31.702Z,28.30
2023-01-13T21:49:31.726Z,27.50
2023-01-13T21:52:33.800Z,25.90
2023-01-13T21:58:35.732Z,30.00
2023-01-13T22:01:35.999Z,27.80
